Time,TemperatureF,DewpointF,PressureIn,WindDirection,WindDirectionDegrees,WindSpeedMPH,WindSpeedGustMPH,Humidity,HourlyPrecipIn,Conditions,Clouds,dailyrainin,SolarRadiationWatts/m^2,SoftwareType,DateUTC
2013-04-11 00:00:00,64.1,54.9,29.86,East,88,6.0,6.0,72,0.00,,,0.00,0,Wunderground v.1.15,2013-04-11 04:00:00,
2013-04-11 00:01:00,64.0,54.8,29.86,East,88,6.0,6.0,72,0.00,,,0.00,0,Wunderground v.1.15,2013-04-11 04:01:00,
2013-04-11 00:02:00,63.9,54.7,29.86,NNE,20,5.0,6.0,72,0.00,,,0.00,0,Wunderground v.1.15,2013-04-11 04:02:00,
2013-04-11 00:06:00,63.7,54.9,29.86,NE,55,3.0,6.0,73,0.00,,,0.00,0,Wunderground v.1.15,2013-04-11 04:06:00,
2013-04-11 00:12:00,63.4,55.0,29.86,ESE,105,3.0,5.0,74,0.00,,,0.00,0,Wunderground v.1.15,2013-04-11 04:12:00,
2013-04-11 00:17:00,63.0,54.6,29.86,ENE,60,6.0,13.0,74,0.00,,,0.00,0,Wunderground v.1.15,2013-04-11 04:17:00,
2013-04-11 00:23:00,62.7,54.7,29.86,ENE,59,9.0,10.0,75,0.00,,,0.00,0,Wunderground v.1.15,2013-04-11 04:23:00,
2013-04-11 00:29:00,62.5,54.8,29.87,ENE,59,7.0,10.0,76,0.00,,,0.00,0,Wunderground v.1.15,2013-04-11 04:29:00,
2013-04-11 00:35:00,62.2,54.5,29.86,NNE,15,5.0,7.0,76,0.00,,,0.00,0,Wunderground v.1.15,2013-04-11 04:35:00,
2013-04-11 00:40:00,62.0,54.7,29.86,NE,51,4.0,4.0,77,0.00,,,0.00,0,Wunderground v.1.15,2013-04-11 04:40:00,
2013-04-11 00:46:00,61.5,54.6,29.86,NE,51,3.0,4.0,78,0.00,,,0.00,0,Wunderground v.1.15,2013-04-11 04:46:00,
2013-04-11 00:51:00,61.1,54.2,29.86,NE,51,3.0,4.0,78,0.00,,,0.00,0,Wunderground v.1.15,2013-04-11 04:51:00,
2013-04-11 00:56:00,60.5,54.0,29.85,NE,50,2.0,4.0,79,0.00,,,0.00,0,Wunderground v.1.15,2013-04-11 04:56:00,
2013-04-11 01:02:00,59.5,53.3,29.85,NNW,344,1.0,3.0,80,0.00,,,0.00,0,Wunderground v.1.15,2013-04-11 05:02:00,
2013-04-11 01:07:00,58.7,52.9,29.85,NW,325,2.0,4.0,81,0.00,,,0.00,0,Wunderground v.1.15,2013-04-11 05:07:00,
2013-04-11 01:13:00,58.0,52.9,29.85,NW,321,3.0,4.0,83,0.00,,,0.00,0,Wunderground v.1.15,2013-04-11 05:13:00,
2013-04-11 01:19:00,57.3,52.5,29.85,NW,313,3.0,4.0,84,0.00,,,0.00,0,Wunderground v.1.15,2013-04-11 05:19:00,
2013-04-11 01:24:00,56.9,52.4,29.85,NW,314,2.0,3.0,85,0.00,,,0.00,0,Wunderground v.1.15,2013-04-11 05:24:00,
2013-04-11 01:29:00,56.4,51.9,29.85,NW,314,0.0,3.0,85,0.00,,,0.00,0,Wunderground v.1.15,2013-04-11 05:29:00,
2013-04-11 01:34:00,56.0,51.9,29.85,NW,313,0.0,0.0,86,0.00,,,0.00,0,Wunderground v.1.15,2013-04-11 05:34:00,
2013-04-11 01:40:00,55.7,51.9,29.85,NW,315,0.0,0.0,87,0.00,,,0.00,0,Wunderground v.1.15,2013-04-11 05:40:00,
2013-04-11 01:45:00,55.2,51.7,29.85,NW,314,0.0,2.0,88,0.00,,,0.00,0,Wunderground v.1.15,2013-04-11 05:45:00,
2013-04-11 01:51:00,54.8,51.3,29.85,NW,314,1.0,3.0,88,0.00,,,0.00,0,Wunderground v.1.15,2013-04-11 05:51:00,
2013-04-11 01:56:00,54.6,51.4,29.84,NW,313,2.0,3.0,89,0.00,,,0.00,0,Wunderground v.1.15,2013-04-11 05:56:00,
2013-04-11 02:02:00,54.5,51.3,29.84,NW,312,1.0,1.0,89,0.00,,,0.00,0,Wunderground v.1.15,2013-04-11 06:02:00,
2013-04-11 02:08:00,54.2,51.3,29.84,South,191,2.0,5.0,90,0.00,,,0.00,0,Wunderground v.1.15,2013-04-11 06:08:00,
2013-04-11 02:14:00,53.9,51.0,29.83,North,360,3.0,5.0,90,0.00,,,0.00,0,Wunderground v.1.15,2013-04-11 06:14:00,
2013-04-11 02:19:00,53.8,51.2,29.83,West,262,4.0,5.0,91,0.00,,,0.00,0,Wunderground v.1.15,2013-04-11 06:19:00,
2013-04-11 02:25:00,53.5,50.9,29.83,WSW,247,3.0,4.0,91,0.00,,,0.00,0,Wunderground v.1.15,2013-04-11 06:25:00,
2013-04-11 02:31:00,53.3,50.7,29.84,WSW,250,2.0,2.0,91,0.00,,,0.00,0,Wunderground v.1.15,2013-04-11 06:31:00,
2013-04-11 02:37:00,53.1,50.8,29.83,WSW,246,3.0,4.0,92,0.00,,,0.00,0,Wunderground v.1.15,2013-04-11 06:37:00,
2013-04-11 02:43:00,52.9,50.6,29.83,WSW,240,3.0,4.0,92,0.00,,,0.00,0,Wunderground v.1.15,2013-04-11 06:43:00,
2013-04-11 02:49:00,52.7,50.4,29.83,WSW,242,1.0,4.0,92,0.00,,,0.00,0,Wunderground v.1.15,2013-04-11 06:49:00,
2013-04-11 02:54:00,52.5,50.5,29.83,WSW,245,2.0,4.0,93,0.00,,,0.00,0,Wunderground v.1.15,2013-04-11 06:54:00,
2013-04-11 03:00:00,52.4,50.7,29.83,West,271,3.0,3.0,94,0.00,,,0.00,0,Wunderground v.1.15,2013-04-11 07:00:00,
2013-04-11 03:06:00,52.4,50.4,29.83,West,275,1.0,3.0,93,0.00,,,0.00,0,Wunderground v.1.15,2013-04-11 07:06:00,
2013-04-11 03:11:00,52.2,50.2,29.83,West,272,0.0,0.0,93,0.00,,,0.00,0,Wunderground v.1.15,2013-04-11 07:11:00,
2013-04-11 03:17:00,52.0,50.3,29.83,West,273,0.0,0.0,94,0.00,,,0.00,0,Wunderground v.1.15,2013-04-11 07:17:00,
2013-04-11 03:22:00,51.8,50.1,29.83,West,270,0.0,0.0,94,0.00,,,0.00,0,Wunderground v.1.15,2013-04-11 07:22:00,
2013-04-11 03:28:00,51.7,50.0,29.83,West,272,0.0,0.0,94,0.00,,,0.00,0,Wunderground v.1.15,2013-04-11 07:28:00,
2013-04-11 03:34:00,51.6,49.9,29.83,West,273,1.0,3.0,94,0.00,,,0.00,0,Wunderground v.1.15,2013-04-11 07:34:00,
2013-04-11 03:39:00,51.5,50.1,29.82,West,271,1.0,3.0,95,0.00,,,0.00,0,Wunderground v.1.15,2013-04-11 07:39:00,
2013-04-11 03:45:00,51.4,50.0,29.82,West,273,1.0,2.0,95,0.00,,,0.00,0,Wunderground v.1.15,2013-04-11 07:45:00,
2013-04-11 03:50:00,51.2,49.8,29.82,West,271,1.0,1.0,95,0.00,,,0.00,0,Wunderground v.1.15,2013-04-11 07:50:00,
2013-04-11 03:56:00,51.1,49.7,29.83,West,270,0.0,1.0,95,0.00,,,0.00,0,Wunderground v.1.15,2013-04-11 07:56:00,
2013-04-11 04:02:00,50.9,49.8,29.83,West,272,0.0,0.0,96,0.00,,,0.00,0,Wunderground v.1.15,2013-04-11 08:02:00,
2013-04-11 04:08:00,50.8,49.4,29.83,West,271,0.0,0.0,95,0.00,,,0.00,0,Wunderground v.1.15,2013-04-11 08:08:00,
2013-04-11 04:13:00,50.6,49.5,29.83,West,270,0.0,0.0,96,0.00,,,0.00,0,Wunderground v.1.15,2013-04-11 08:13:00,
2013-04-11 04:19:00,50.4,49.3,29.83,West,279,1.0,4.0,96,0.00,,,0.00,0,Wunderground v.1.15,2013-04-11 08:19:00,
2013-04-11 04:24:00,50.4,49.3,29.83,West,279,1.0,1.0,96,0.00,,,0.00,0,Wunderground v.1.15,2013-04-11 08:24:00,
2013-04-11 04:30:00,50.3,49.5,29.83,West,279,0.0,0.0,97,0.00,,,0.00,0,Wunderground v.1.15,2013-04-11 08:30:00,
2013-04-11 04:35:00,50.2,49.4,29.83,West,279,0.0,0.0,97,0.00,,,0.00,0,Wunderground v.1.15,2013-04-11 08:35:00,
2013-04-11 04:41:00,50.1,49.3,29.83,West,279,0.0,0.0,97,0.00,,,0.00,0,Wunderground v.1.15,2013-04-11 08:41:00,
2013-04-11 04:46:00,49.9,49.1,29.83,West,280,1.0,3.0,97,0.00,,,0.00,0,Wunderground v.1.15,2013-04-11 08:46:00,
2013-04-11 04:52:00,49.8,49.0,29.83,WNW,284,2.0,2.0,97,0.00,,,0.00,0,Wunderground v.1.15,2013-04-11 08:52:00,
2013-04-11 04:57:00,49.8,49.0,29.83,West,279,2.0,3.0,97,0.00,,,0.00,0,Wunderground v.1.15,2013-04-11 08:57:00,
2013-04-11 05:03:00,49.6,49.1,29.83,West,278,1.0,2.0,98,0.00,,,0.00,0,Wunderground v.1.15,2013-04-11 09:03:00,
2013-04-11 05:08:00,49.5,49.0,29.83,West,278,1.0,2.0,98,0.00,,,0.00,0,Wunderground v.1.15,2013-04-11 09:08:00,
2013-04-11 05:14:00,49.4,48.9,29.84,West,279,0.0,0.0,98,0.00,,,0.00,0,Wunderground v.1.15,2013-04-11 09:14:00,
2013-04-11 05:20:00,49.2,48.7,29.83,West,279,0.0,0.0,98,0.00,,,0.00,0,Wunderground v.1.15,2013-04-11 09:20:00,
2013-04-11 05:26:00,49.1,48.6,29.83,West,278,0.0,2.0,98,0.00,,,0.00,0,Wunderground v.1.15,2013-04-11 09:26:00,
2013-04-11 05:31:00,49.0,48.7,29.84,West,280,1.0,2.0,99,0.00,,,0.00,0,Wunderground v.1.15,2013-04-11 09:31:00,
2013-04-11 05:37:00,49.0,48.7,29.83,West,279,2.0,4.0,99,0.00,,,0.00,0,Wunderground v.1.15,2013-04-11 09:37:00,
2013-04-11 05:43:00,49.0,48.7,29.83,West,279,3.0,3.0,99,0.00,,,0.00,0,Wunderground v.1.15,2013-04-11 09:43:00,
2013-04-11 05:48:00,49.0,48.7,29.83,West,279,1.0,3.0,99,0.00,,,0.00,0,Wunderground v.1.15,2013-04-11 09:48:00,
2013-04-11 05:54:00,48.9,48.6,29.83,West,279,0.0,0.0,99,0.00,,,0.00,0,Wunderground v.1.15,2013-04-11 09:54:00,
2013-04-11 06:00:00,48.7,48.2,29.83,West,281,1.0,3.0,98,0.00,,,0.00,0,Wunderground v.1.15,2013-04-11 10:00:00,
2013-04-11 06:06:00,48.5,48.2,29.83,West,279,2.0,4.0,99,0.00,,,0.00,0,Wunderground v.1.15,2013-04-11 10:06:00,
2013-04-11 06:11:00,48.3,48.0,29.83,West,281,1.0,1.0,99,0.00,,,0.00,0,Wunderground v.1.15,2013-04-11 10:11:00,
2013-04-11 06:16:00,48.2,48.2,29.83,West,279,1.0,1.0,100,0.00,,,0.00,0,Wunderground v.1.15,2013-04-11 10:16:00,
2013-04-11 06:21:00,48.2,48.2,29.83,West,277,1.0,1.0,100,0.00,,,0.00,0,Wunderground v.1.15,2013-04-11 10:21:00,
2013-04-11 06:26:00,48.2,48.2,29.83,West,279,0.0,1.0,100,0.00,,,0.00,0,Wunderground v.1.15,2013-04-11 10:26:00,
2013-04-11 06:32:00,48.2,48.2,29.83,West,279,0.0,0.0,100,0.00,,,0.00,0,Wunderground v.1.15,2013-04-11 10:32:00,
2013-04-11 06:37:00,48.1,48.1,29.83,West,278,0.0,2.0,100,0.00,,,0.00,0,Wunderground v.1.15,2013-04-11 10:37:00,
2013-04-11 06:42:00,48.0,48.0,29.83,West,280,0.0,0.0,100,0.00,,,0.00,0,Wunderground v.1.15,2013-04-11 10:42:00,
2013-04-11 06:48:00,48.0,48.0,29.83,West,278,0.0,2.0,100,0.00,,,0.00,0,Wunderground v.1.15,2013-04-11 10:48:00,
2013-04-11 06:53:00,47.9,47.9,29.83,West,278,1.0,2.0,100,0.00,,,0.00,5,Wunderground v.1.15,2013-04-11 10:53:00,
2013-04-11 06:59:00,47.9,47.9,29.83,West,278,1.0,2.0,100,0.00,,,0.00,9,Wunderground v.1.15,2013-04-11 10:59:00,
2013-04-11 07:05:00,47.8,47.8,29.83,West,281,0.0,1.0,100,0.00,,,0.00,12,Wunderground v.1.15,2013-04-11 11:05:00,
2013-04-11 07:10:00,47.7,47.7,29.84,West,279,0.0,0.0,100,0.00,,,0.00,14,Wunderground v.1.15,2013-04-11 11:10:00,
2013-04-11 07:16:00,47.6,47.6,29.84,West,279,0.0,1.0,100,0.00,,,0.00,18,Wunderground v.1.15,2013-04-11 11:16:00,
2013-04-11 07:22:00,47.5,47.5,29.84,West,277,1.0,2.0,100,0.00,,,0.00,21,Wunderground v.1.15,2013-04-11 11:22:00,
2013-04-11 07:27:00,47.5,47.5,29.84,West,278,2.0,3.0,100,0.00,,,0.00,26,Wunderground v.1.15,2013-04-11 11:27:00,
2013-04-11 07:32:00,47.5,47.5,29.84,North,360,2.0,2.0,100,0.00,,,0.00,26,Wunderground v.1.15,2013-04-11 11:32:00,
2013-04-11 07:37:00,47.6,47.6,29.84,West,277,1.0,2.0,100,0.00,,,0.00,47,Wunderground v.1.15,2013-04-11 11:37:00,
2013-04-11 07:43:00,47.9,47.9,29.85,West,279,1.0,2.0,100,0.00,,,0.00,76,Wunderground v.1.15,2013-04-11 11:43:00,
2013-04-11 07:48:00,48.3,48.3,29.85,North,360,1.0,2.0,100,0.00,,,0.00,105,Wunderground v.1.15,2013-04-11 11:48:00,
2013-04-11 07:54:00,48.8,48.8,29.85,North,360,0.0,1.0,100,0.00,,,0.00,151,Wunderground v.1.15,2013-04-11 11:54:00,
2013-04-11 07:59:00,49.3,49.3,29.85,West,280,0.0,1.0,100,0.00,,,0.00,192,Wunderground v.1.15,2013-04-11 11:59:00,
2013-04-11 08:04:00,49.9,49.9,29.85,West,279,0.0,0.0,100,0.00,,,0.00,214,Wunderground v.1.15,2013-04-11 12:04:00,
2013-04-11 08:10:00,50.9,50.9,29.85,West,279,0.0,0.0,100,0.00,,,0.00,248,Wunderground v.1.15,2013-04-11 12:10:00,
2013-04-11 08:16:00,52.0,51.5,29.85,West,280,0.0,2.0,98,0.00,,,0.00,302,Wunderground v.1.15,2013-04-11 12:16:00,
2013-04-11 08:22:00,53.0,51.9,29.85,West,278,0.0,1.0,96,0.00,,,0.00,297,Wunderground v.1.15,2013-04-11 12:22:00,
2013-04-11 08:27:00,53.8,51.8,29.84,North,360,0.0,1.0,93,0.00,,,0.00,279,Wunderground v.1.15,2013-04-11 12:27:00,
2013-04-11 08:33:00,54.4,52.4,29.84,West,279,0.0,1.0,93,0.00,,,0.00,311,Wunderground v.1.15,2013-04-11 12:33:00,
2013-04-11 08:39:00,55.3,53.0,29.84,West,280,0.0,1.0,92,0.00,,,0.00,313,Wunderground v.1.15,2013-04-11 12:39:00,
2013-04-11 08:45:00,56.0,53.1,29.84,NNW,342,0.0,2.0,90,0.00,,,0.00,290,Wunderground v.1.15,2013-04-11 12:45:00,
2013-04-11 08:51:00,56.6,53.7,29.84,ENE,57,1.0,1.0,90,0.00,,,0.00,355,Wunderground v.1.15,2013-04-11 12:51:00,
2013-04-11 08:57:00,57.4,53.9,29.84,ENE,57,0.0,1.0,88,0.00,,,0.00,367,Wunderground v.1.15,2013-04-11 12:57:00,
2013-04-11 09:02:00,58.1,54.2,29.84,ENE,58,0.0,0.0,87,0.00,,,0.00,339,Wunderground v.1.15,2013-04-11 13:02:00,
2013-04-11 09:08:00,58.8,54.6,29.84,NE,56,0.0,1.0,86,0.00,,,0.00,355,Wunderground v.1.15,2013-04-11 13:08:00,
2013-04-11 09:13:00,59.3,55.4,29.84,ENE,57,0.0,1.0,87,0.00,,,0.00,371,Wunderground v.1.15,2013-04-11 13:13:00,
2013-04-11 09:19:00,59.9,55.4,29.84,ENE,57,0.0,1.0,85,0.00,,,0.00,341,Wunderground v.1.15,2013-04-11 13:19:00,
2013-04-11 09:24:00,60.4,55.2,29.84,ENE,59,0.0,2.0,83,0.00,,,0.00,373,Wunderground v.1.15,2013-04-11 13:24:00,
2013-04-11 09:30:00,60.8,55.3,29.84,ENE,58,0.0,0.0,82,0.00,,,0.00,471,Wunderground v.1.15,2013-04-11 13:30:00,
2013-04-11 09:36:00,61.5,55.6,29.84,ENE,59,0.0,1.0,81,0.00,,,0.00,510,Wunderground v.1.15,2013-04-11 13:36:00,
2013-04-11 09:42:00,62.1,56.2,29.84,ENE,59,0.0,2.0,81,0.00,,,0.00,464,Wunderground v.1.15,2013-04-11 13:42:00,
2013-04-11 09:47:00,62.5,56.6,29.84,ENE,59,0.0,2.0,81,0.00,,,0.00,392,Wunderground v.1.15,2013-04-11 13:47:00,
2013-04-11 09:53:00,63.0,57.1,29.83,ENE,60,0.0,1.0,81,0.00,,,0.00,257,Wunderground v.1.15,2013-04-11 13:53:00,
2013-04-11 09:59:00,63.3,56.7,29.83,ENE,57,0.0,1.0,79,0.00,,,0.00,227,Wunderground v.1.15,2013-04-11 13:59:00,
2013-04-11 10:04:00,63.6,57.0,29.83,ENE,61,0.0,0.0,79,0.00,,,0.00,239,Wunderground v.1.15,2013-04-11 14:04:00,
2013-04-11 10:09:00,64.1,57.5,29.83,ENE,58,0.0,2.0,79,0.00,,,0.00,527,Wunderground v.1.15,2013-04-11 14:09:00,
2013-04-11 10:15:00,64.8,57.4,29.83,ENE,57,1.0,2.0,77,0.00,,,0.00,594,Wunderground v.1.15,2013-04-11 14:15:00,
2013-04-11 10:20:00,65.4,58.0,29.82,ENE,60,2.0,2.0,77,0.00,,,0.00,624,Wunderground v.1.15,2013-04-11 14:20:00,
2013-04-11 10:26:00,66.0,58.2,29.82,ENE,59,2.0,3.0,76,0.00,,,0.00,701,Wunderground v.1.15,2013-04-11 14:26:00,
2013-04-11 10:32:00,66.7,57.4,29.82,ENE,58,1.0,2.0,72,0.00,,,0.00,496,Wunderground v.1.15,2013-04-11 14:32:00,
2013-04-11 10:38:00,67.6,57.9,29.82,ENE,58,1.0,3.0,71,0.00,,,0.00,578,Wunderground v.1.15,2013-04-11 14:38:00,
2013-04-11 10:44:00,68.4,60.2,29.82,ENE,59,1.0,2.0,75,0.00,,,0.00,747,Wunderground v.1.15,2013-04-11 14:44:00,
2013-04-11 10:49:00,68.8,58.6,29.82,ENE,59,1.0,3.0,70,0.00,,,0.00,439,Wunderground v.1.15,2013-04-11 14:49:00,
2013-04-11 10:54:00,69.1,58.9,29.81,ENE,59,2.0,3.0,70,0.00,,,0.00,410,Wunderground v.1.15,2013-04-11 14:54:00,
2013-04-11 11:00:00,69.6,59.0,29.81,ENE,59,2.0,2.0,69,0.00,,,0.00,512,Wunderground v.1.15,2013-04-11 15:00:00,
2013-04-11 11:06:00,70.2,60.0,29.81,NE,56,2.0,4.0,70,0.00,,,0.00,635,Wunderground v.1.15,2013-04-11 15:06:00,
2013-04-11 11:11:00,70.5,58.6,29.81,ENE,60,3.0,3.0,66,0.00,,,0.00,446,Wunderground v.1.15,2013-04-11 15:11:00,
2013-04-11 11:17:00,70.7,58.8,29.80,NE,40,3.0,5.0,66,0.00,,,0.00,334,Wunderground v.1.15,2013-04-11 15:17:00,
2013-04-11 11:23:00,70.9,59.8,29.80,NNE,32,2.0,3.0,68,0.00,,,0.00,267,Wunderground v.1.15,2013-04-11 15:23:00,
2013-04-11 11:28:00,71.1,59.6,29.80,NNE,31,2.0,4.0,67,0.00,,,0.00,271,Wunderground v.1.15,2013-04-11 15:28:00,
2013-04-11 11:33:00,71.1,58.3,29.80,North,355,3.0,6.0,64,0.00,,,0.00,320,Wunderground v.1.15,2013-04-11 15:33:00,
2013-04-11 11:39:00,71.5,59.5,29.80,NE,37,3.0,6.0,66,0.00,,,0.00,376,Wunderground v.1.15,2013-04-11 15:39:00,
2013-04-11 11:44:00,72.0,61.3,29.80,ENE,78,2.0,4.0,69,0.00,,,0.00,758,Wunderground v.1.15,2013-04-11 15:44:00,
2013-04-11 11:50:00,72.8,59.9,29.80,East,80,2.0,2.0,64,0.00,,,0.00,596,Wunderground v.1.15,2013-04-11 15:50:00,
2013-04-11 11:56:00,73.6,60.7,29.80,North,360,1.0,10.0,64,0.00,,,0.00,376,Wunderground v.1.15,2013-04-11 15:56:00,
2013-04-11 12:02:00,74.6,59.3,29.79,WNW,284,7.0,13.0,59,0.00,,,0.00,292,Wunderground v.1.15,2013-04-11 16:02:00,
2013-04-11 12:07:00,75.2,59.9,29.79,West,259,8.0,13.0,59,0.00,,,0.00,315,Wunderground v.1.15,2013-04-11 16:07:00,
2013-04-11 12:13:00,75.6,60.3,29.78,WSW,242,7.0,9.0,59,0.00,,,0.00,345,Wunderground v.1.15,2013-04-11 16:13:00,
2013-04-11 12:18:00,76.0,59.7,29.78,North,360,7.0,10.0,57,0.00,,,0.00,461,Wunderground v.1.15,2013-04-11 16:18:00,
2013-04-11 12:23:00,76.4,59.0,29.78,WNW,289,8.0,8.0,55,0.00,,,0.00,461,Wunderground v.1.15,2013-04-11 16:23:00,
2013-04-11 12:28:00,76.8,59.4,29.78,NW,322,8.0,13.0,55,0.00,,,0.00,462,Wunderground v.1.15,2013-04-11 16:28:00,
2013-04-11 12:34:00,77.1,60.2,29.77,SW,228,7.0,12.0,56,0.00,,,0.00,483,Wunderground v.1.15,2013-04-11 16:34:00,
2013-04-11 12:40:00,77.3,59.4,29.77,North,360,7.0,7.0,54,0.00,,,0.00,482,Wunderground v.1.15,2013-04-11 16:40:00,
2013-04-11 12:45:00,77.6,60.7,29.77,North,360,7.0,12.0,56,0.00,,,0.00,566,Wunderground v.1.15,2013-04-11 16:45:00,
2013-04-11 12:50:00,77.9,59.4,29.77,West,277,5.0,5.0,53,0.00,,,0.00,571,Wunderground v.1.15,2013-04-11 16:50:00,
2013-04-11 12:55:00,78.3,60.3,29.76,SW,228,5.0,10.0,54,0.00,,,0.00,424,Wunderground v.1.15,2013-04-11 16:55:00,
2013-04-11 13:00:00,78.4,60.9,29.76,North,360,7.0,7.0,55,0.00,,,0.00,341,Wunderground v.1.15,2013-04-11 17:00:00,
2013-04-11 13:06:00,78.3,59.8,29.76,WSW,248,6.0,14.0,53,0.00,,,0.00,441,Wunderground v.1.15,2013-04-11 17:06:00,
2013-04-11 13:11:00,78.2,59.1,29.76,WSW,238,6.0,6.0,52,0.00,,,0.00,374,Wunderground v.1.15,2013-04-11 17:11:00,
2013-04-11 13:17:00,78.3,59.2,29.75,SSW,211,4.0,6.0,52,0.00,,,0.00,503,Wunderground v.1.15,2013-04-11 17:17:00,
2013-04-11 13:22:00,78.5,59.9,29.75,SSW,205,3.0,8.0,53,0.00,,,0.00,441,Wunderground v.1.15,2013-04-11 17:22:00,
2013-04-11 13:27:00,78.7,61.2,29.75,SSW,203,3.0,8.0,55,0.00,,,0.00,573,Wunderground v.1.15,2013-04-11 17:27:00,
2013-04-11 13:33:00,78.5,59.9,29.75,NW,315,3.0,8.0,53,0.00,,,0.00,515,Wunderground v.1.15,2013-04-11 17:33:00,
2013-04-11 13:39:00,78.6,59.5,29.75,WSW,239,5.0,8.0,52,0.00,,,0.00,605,Wunderground v.1.15,2013-04-11 17:39:00,
2013-04-11 13:45:00,79.0,59.3,29.74,North,360,5.0,9.0,51,0.00,,,0.00,497,Wunderground v.1.15,2013-04-11 17:45:00,
2013-04-11 13:51:00,79.1,59.4,29.74,WSW,257,3.0,4.0,51,0.00,,,0.00,352,Wunderground v.1.15,2013-04-11 17:51:00,
2013-04-11 13:56:00,79.1,59.4,29.74,NNE,27,2.0,6.0,51,0.00,,,0.00,552,Wunderground v.1.15,2013-04-11 17:56:00,
2013-04-11 14:02:00,79.0,58.8,29.73,WNW,290,5.0,7.0,50,0.00,,,0.00,506,Wunderground v.1.15,2013-04-11 18:02:00,
2013-04-11 14:07:00,78.8,58.6,29.73,WNW,290,4.0,7.0,50,0.00,,,0.00,461,Wunderground v.1.15,2013-04-11 18:07:00,
2013-04-11 14:12:00,78.9,60.3,29.73,North,360,2.0,5.0,53,0.00,,,0.00,605,Wunderground v.1.15,2013-04-11 18:12:00,
2013-04-11 14:18:00,79.4,59.1,29.73,West,276,4.0,5.0,50,0.00,,,0.00,341,Wunderground v.1.15,2013-04-11 18:18:00,
2013-04-11 14:23:00,79.6,60.4,29.73,WNW,298,3.0,4.0,52,0.00,,,0.00,288,Wunderground v.1.15,2013-04-11 18:23:00,
2013-04-11 14:29:00,80.0,59.7,29.73,South,190,2.0,6.0,50,0.00,,,0.00,362,Wunderground v.1.15,2013-04-11 18:29:00,
2013-04-11 14:34:00,80.2,59.9,29.73,South,175,5.0,8.0,50,0.00,,,0.00,308,Wunderground v.1.15,2013-04-11 18:34:00,
2013-04-11 14:40:00,80.2,58.7,29.72,SSE,160,5.0,5.0,48,0.00,,,0.00,260,Wunderground v.1.15,2013-04-11 18:40:00,
2013-04-11 14:46:00,79.9,59.6,29.72,SSE,157,3.0,5.0,50,0.00,,,0.00,267,Wunderground v.1.15,2013-04-11 18:46:00,
2013-04-11 14:52:00,79.9,59.6,29.72,SE,138,4.0,7.0,50,0.00,,,0.00,269,Wunderground v.1.15,2013-04-11 18:52:00,
2013-04-11 14:58:00,79.7,60.0,29.71,SE,142,4.0,7.0,51,0.00,,,0.00,288,Wunderground v.1.15,2013-04-11 18:58:00,
2013-04-11 15:04:00,79.4,59.7,29.71,SSE,149,3.0,5.0,51,0.00,,,0.00,338,Wunderground v.1.15,2013-04-11 19:04:00,
2013-04-11 15:10:00,79.8,60.1,29.70,ENE,78,2.0,3.0,51,0.00,,,0.00,738,Wunderground v.1.15,2013-04-11 19:10:00,
2013-04-11 15:16:00,79.5,59.2,29.70,East,79,2.0,3.0,50,0.00,,,0.00,533,Wunderground v.1.15,2013-04-11 19:16:00,
2013-04-11 15:21:00,79.5,60.9,29.70,ENE,76,1.0,1.0,53,0.00,,,0.00,330,Wunderground v.1.15,2013-04-11 19:21:00,
2013-04-11 15:27:00,79.8,60.1,29.69,SE,145,2.0,6.0,51,0.00,,,0.00,548,Wunderground v.1.15,2013-04-11 19:27:00,
2013-04-11 15:32:00,80.0,58.5,29.69,SE,146,3.0,3.0,48,0.00,,,0.00,482,Wunderground v.1.15,2013-04-11 19:32:00,
2013-04-11 15:37:00,80.6,59.1,29.69,SSE,150,1.0,3.0,48,0.00,,,0.00,515,Wunderground v.1.15,2013-04-11 19:37:00,
2013-04-11 15:43:00,81.2,60.2,29.68,NNE,29,1.0,4.0,49,0.00,,,0.00,582,Wunderground v.1.15,2013-04-11 19:43:00,
2013-04-11 15:48:00,81.1,59.0,29.68,North,360,2.0,5.0,47,0.00,,,0.00,566,Wunderground v.1.15,2013-04-11 19:48:00,
2013-04-11 15:54:00,81.3,59.1,29.68,North,360,3.0,6.0,47,0.00,,,0.00,376,Wunderground v.1.15,2013-04-11 19:54:00,
2013-04-11 15:59:00,81.2,59.6,29.67,North,360,4.0,6.0,48,0.00,,,0.00,406,Wunderground v.1.15,2013-04-11 19:59:00,
2013-04-11 16:05:00,81.0,59.5,29.67,NNE,22,4.0,5.0,48,0.00,,,0.00,515,Wunderground v.1.15,2013-04-11 20:05:00,
2013-04-11 16:10:00,80.9,59.4,29.67,NNE,32,3.0,4.0,48,0.00,,,0.00,388,Wunderground v.1.15,2013-04-11 20:10:00,
2013-04-11 16:16:00,80.5,57.8,29.67,NNE,23,3.0,4.0,46,0.00,,,0.00,253,Wunderground v.1.15,2013-04-11 20:16:00,
2013-04-11 16:21:00,80.5,58.4,29.67,NNE,23,2.0,2.0,47,0.00,,,0.00,290,Wunderground v.1.15,2013-04-11 20:21:00,
2013-04-11 16:27:00,80.3,60.0,29.67,ENE,60,1.0,2.0,50,0.00,,,0.00,264,Wunderground v.1.15,2013-04-11 20:27:00,
2013-04-11 16:33:00,79.9,60.2,29.66,ENE,61,1.0,2.0,51,0.00,,,0.00,199,Wunderground v.1.15,2013-04-11 20:33:00,
2013-04-11 16:38:00,79.4,59.7,29.66,NE,38,1.0,4.0,51,0.00,,,0.00,216,Wunderground v.1.15,2013-04-11 20:38:00,
2013-04-11 16:44:00,79.3,57.9,29.66,NE,46,2.0,4.0,48,0.00,,,0.00,211,Wunderground v.1.15,2013-04-11 20:44:00,
2013-04-11 16:49:00,79.5,59.2,29.66,NE,46,1.0,4.0,50,0.00,,,0.00,176,Wunderground v.1.15,2013-04-11 20:49:00,
2013-04-11 16:55:00,79.5,58.7,29.66,NE,46,0.0,3.0,49,0.00,,,0.00,167,Wunderground v.1.15,2013-04-11 20:55:00,
2013-04-11 17:00:00,79.1,58.9,29.66,ENE,76,4.0,7.0,50,0.00,,,0.00,134,Wunderground v.1.15,2013-04-11 21:00:00,
2013-04-11 17:06:00,78.4,59.9,29.66,East,94,8.0,8.0,53,0.00,,,0.00,95,Wunderground v.1.15,2013-04-11 21:06:00,
2013-04-11 17:12:00,77.7,59.7,29.66,ESE,118,7.0,7.0,54,0.00,,,0.00,118,Wunderground v.1.15,2013-04-11 21:12:00,
2013-04-11 17:17:00,77.4,60.0,29.66,East,94,7.0,9.0,55,0.00,,,0.00,114,Wunderground v.1.15,2013-04-11 21:17:00,
2013-04-11 17:22:00,77.2,59.8,29.66,ENE,71,6.0,10.0,55,0.00,,,0.00,109,Wunderground v.1.15,2013-04-11 21:22:00,
2013-04-11 17:28:00,76.8,58.4,29.65,East,90,7.0,11.0,53,0.00,,,0.00,132,Wunderground v.1.15,2013-04-11 21:28:00,
2013-04-11 17:33:00,76.7,60.3,29.65,East,97,7.0,8.0,57,0.00,,,0.00,149,Wunderground v.1.15,2013-04-11 21:33:00,
2013-04-11 17:38:00,76.7,59.3,29.65,NE,55,5.0,8.0,55,0.00,,,0.00,137,Wunderground v.1.15,2013-04-11 21:38:00,
2013-04-11 17:44:00,76.5,60.6,29.64,SE,126,5.0,8.0,58,0.00,,,0.00,84,Wunderground v.1.15,2013-04-11 21:44:00,
2013-04-11 17:50:00,76.4,60.0,29.64,NE,49,6.0,6.0,57,0.00,,,0.00,84,Wunderground v.1.15,2013-04-11 21:50:00,
2013-04-11 17:55:00,76.3,59.4,29.65,ENE,69,6.0,6.0,56,0.00,,,0.00,120,Wunderground v.1.15,2013-04-11 21:55:00,
2013-04-11 18:00:00,76.5,60.1,29.65,ENE,76,5.0,5.0,57,0.00,,,0.00,160,Wunderground v.1.15,2013-04-11 22:00:00,
2013-04-11 18:06:00,76.5,60.6,29.64,ESE,110,6.0,10.0,58,0.00,,,0.00,142,Wunderground v.1.15,2013-04-11 22:06:00,
2013-04-11 18:11:00,76.5,60.6,29.64,East,94,6.0,11.0,58,0.00,,,0.00,130,Wunderground v.1.15,2013-04-11 22:11:00,
2013-04-11 18:17:00,76.4,60.0,29.65,ENE,65,7.0,12.0,57,0.00,,,0.00,116,Wunderground v.1.15,2013-04-11 22:17:00,
2013-04-11 18:23:00,76.3,60.4,29.65,ESE,109,9.0,12.0,58,0.00,,,0.00,105,Wunderground v.1.15,2013-04-11 22:23:00,
2013-04-11 18:28:00,76.1,60.2,29.65,ESE,105,11.0,15.0,58,0.00,,,0.00,109,Wunderground v.1.15,2013-04-11 22:28:00,
2013-04-11 18:34:00,76.2,60.8,29.65,East,90,10.0,15.0,59,0.00,,,0.00,111,Wunderground v.1.15,2013-04-11 22:34:00,
2013-04-11 18:40:00,76.0,61.1,29.65,ENE,67,7.0,7.0,60,0.00,,,0.00,88,Wunderground v.1.15,2013-04-11 22:40:00,
2013-04-11 18:45:00,75.8,60.4,29.65,ENE,71,5.0,8.0,59,0.00,,,0.00,76,Wunderground v.1.15,2013-04-11 22:45:00,
2013-04-11 18:51:00,75.5,60.6,29.65,East,96,6.0,8.0,60,0.00,,,0.00,58,Wunderground v.1.15,2013-04-11 22:51:00,
2013-04-11 18:57:00,75.3,61.4,29.64,ENE,69,5.0,8.0,62,0.00,,,0.00,49,Wunderground v.1.15,2013-04-11 22:57:00,
2013-04-11 19:03:00,74.9,61.0,29.64,East,81,6.0,8.0,62,0.00,,,0.00,46,Wunderground v.1.15,2013-04-11 23:03:00,
2013-04-11 19:09:00,74.6,60.7,29.64,ENE,71,7.0,9.0,62,0.00,,,0.00,44,Wunderground v.1.15,2013-04-11 23:09:00,
2013-04-11 19:14:00,74.4,60.5,29.64,ENE,78,7.0,14.0,62,0.00,,,0.00,37,Wunderground v.1.15,2013-04-11 23:14:00,
2013-04-11 19:20:00,74.2,60.8,29.64,ENE,64,8.0,8.0,63,0.00,,,0.00,28,Wunderground v.1.15,2013-04-11 23:20:00,
2013-04-11 19:25:00,74.0,60.6,29.64,East,86,7.0,10.0,63,0.00,,,0.00,23,Wunderground v.1.15,2013-04-11 23:25:00,
2013-04-11 19:31:00,73.7,59.9,29.64,NE,55,8.0,13.0,62,0.00,,,0.00,16,Wunderground v.1.15,2013-04-11 23:31:00,
2013-04-11 19:37:00,73.6,60.2,29.64,East,92,8.0,13.0,63,0.00,,,0.00,11,Wunderground v.1.15,2013-04-11 23:37:00,
2013-04-11 19:43:00,73.3,59.9,29.64,East,79,8.0,14.0,63,0.00,,,0.00,5,Wunderground v.1.15,2013-04-11 23:43:00,
2013-04-11 19:48:00,73.3,59.9,29.63,ENE,63,9.0,14.0,63,0.00,,,0.00,0,Wunderground v.1.15,2013-04-11 23:48:00,
2013-04-11 19:53:00,73.1,60.6,29.63,ENE,66,9.0,10.0,65,0.00,,,0.00,0,Wunderground v.1.15,2013-04-11 23:53:00,
2013-04-11 19:58:00,72.7,59.8,29.63,ENE,77,9.0,13.0,64,0.00,,,0.00,0,Wunderground v.1.15,2013-04-11 23:58:00,
2013-04-11 20:04:00,72.4,60.0,29.62,ENE,74,8.0,12.0,65,0.00,,,0.00,0,Wunderground v.1.15,2013-04-12 00:04:00,
2013-04-11 20:10:00,72.3,59.9,29.63,East,82,8.0,8.0,65,0.00,,,0.00,0,Wunderground v.1.15,2013-04-12 00:10:00,
2013-04-11 20:15:00,72.2,59.8,29.63,East,82,8.0,10.0,65,0.00,,,0.00,0,Wunderground v.1.15,2013-04-12 00:15:00,
2013-04-11 20:21:00,72.0,59.6,29.63,East,88,7.0,8.0,65,0.00,,,0.00,0,Wunderground v.1.15,2013-04-12 00:21:00,
2013-04-11 20:27:00,71.7,59.7,29.64,East,96,6.0,8.0,66,0.00,,,0.00,0,Wunderground v.1.15,2013-04-12 00:27:00,
2013-04-11 20:32:00,71.2,59.7,29.64,East,84,4.0,4.0,67,0.00,,,0.00,0,Wunderground v.1.15,2013-04-12 00:32:00,
2013-04-11 20:37:00,70.4,59.3,29.64,East,88,3.0,6.0,68,0.00,,,0.00,0,Wunderground v.1.15,2013-04-12 00:37:00,
2013-04-11 20:43:00,69.3,59.1,29.64,ESE,113,2.0,2.0,70,0.00,,,0.00,0,Wunderground v.1.15,2013-04-12 00:43:00,
2013-04-11 20:49:00,68.2,58.8,29.64,ESE,113,1.0,2.0,72,0.00,,,0.00,0,Wunderground v.1.15,2013-04-12 00:49:00,
2013-04-11 20:54:00,67.4,58.4,29.64,ESE,114,1.0,8.0,73,0.00,,,0.00,0,Wunderground v.1.15,2013-04-12 00:54:00,
2013-04-11 20:59:00,67.2,58.2,29.64,ESE,111,2.0,8.0,73,0.00,,,0.00,0,Wunderground v.1.15,2013-04-12 00:59:00,
2013-04-11 21:05:00,66.6,58.1,29.64,ESE,107,1.0,3.0,74,0.00,,,0.00,0,Wunderground v.1.15,2013-04-12 01:05:00,
2013-04-11 21:11:00,66.0,57.8,29.64,ESE,108,1.0,1.0,75,0.00,,,0.00,0,Wunderground v.1.15,2013-04-12 01:11:00,
2013-04-11 21:17:00,65.4,57.6,29.64,SSE,160,0.0,2.0,76,0.00,,,0.00,0,Wunderground v.1.15,2013-04-12 01:17:00,
2013-04-11 21:23:00,64.8,57.4,29.64,SSE,159,0.0,0.0,77,0.00,,,0.00,0,Wunderground v.1.15,2013-04-12 01:23:00,
2013-04-11 21:28:00,64.5,57.5,29.64,SSE,160,0.0,2.0,78,0.00,,,0.00,0,Wunderground v.1.15,2013-04-12 01:28:00,
2013-04-11 21:33:00,64.1,57.1,29.64,East,87,0.0,3.0,78,0.00,,,0.00,0,Wunderground v.1.15,2013-04-12 01:33:00,
2013-04-11 21:39:00,63.9,56.9,29.64,SE,127,2.0,4.0,78,0.00,,,0.00,0,Wunderground v.1.15,2013-04-12 01:39:00,
2013-04-11 21:44:00,63.7,56.7,29.64,ESE,121,3.0,4.0,78,0.00,,,0.00,0,Wunderground v.1.15,2013-04-12 01:44:00,
2013-04-11 21:50:00,63.6,57.0,29.64,SE,142,2.0,2.0,79,0.00,,,0.00,0,Wunderground v.1.15,2013-04-12 01:50:00,
2013-04-11 21:55:00,63.6,56.6,29.64,ENE,67,3.0,7.0,78,0.00,,,0.00,0,Wunderground v.1.15,2013-04-12 01:55:00,
2013-04-11 22:00:00,63.7,56.4,29.64,East,97,3.0,6.0,77,0.00,,,0.00,0,Wunderground v.1.15,2013-04-12 02:00:00,
2013-04-11 22:06:00,63.9,55.8,29.65,NE,42,5.0,9.0,75,0.00,,,0.00,0,Wunderground v.1.15,2013-04-12 02:06:00,
2013-04-11 22:11:00,65.5,57.4,29.65,NNE,22,7.0,8.0,75,0.00,,,0.00,0,Wunderground v.1.15,2013-04-12 02:11:00,
2013-04-11 22:17:00,66.5,58.0,29.65,North,5,8.0,11.0,74,0.00,,,0.00,0,Wunderground v.1.15,2013-04-12 02:17:00,
2013-04-11 22:22:00,66.8,57.9,29.65,NNE,32,7.0,8.0,73,0.00,,,0.00,0,Wunderground v.1.15,2013-04-12 02:22:00,
2013-04-11 22:28:00,66.6,58.1,29.65,NE,38,7.0,10.0,74,0.00,,,0.00,0,Wunderground v.1.15,2013-04-12 02:28:00,
2013-04-11 22:33:00,66.3,57.8,29.65,NE,34,9.0,13.0,74,0.00,,,0.00,0,Wunderground v.1.15,2013-04-12 02:33:00,
2013-04-11 22:39:00,65.9,57.7,29.65,ENE,61,9.0,13.0,75,0.00,,,0.00,0,Wunderground v.1.15,2013-04-12 02:39:00,
2013-04-11 22:44:00,65.5,57.7,29.65,NE,42,8.0,14.0,76,0.00,,,0.00,0,Wunderground v.1.15,2013-04-12 02:44:00,
2013-04-11 22:49:00,65.1,57.7,29.65,ENE,64,7.0,14.0,77,0.00,,,0.00,0,Wunderground v.1.15,2013-04-12 02:49:00,
2013-04-11 22:54:00,64.8,57.8,29.66,East,80,7.0,13.0,78,0.00,,,0.00,0,Wunderground v.1.15,2013-04-12 02:54:00,
2013-04-11 23:00:00,64.4,57.7,29.66,East,79,8.0,8.0,79,0.00,,,0.00,0,Wunderground v.1.15,2013-04-12 03:00:00,
2013-04-11 23:06:00,64.2,57.5,29.66,North,5,7.0,12.0,79,0.00,,,0.00,0,Wunderground v.1.15,2013-04-12 03:06:00,
2013-04-11 23:11:00,64.0,57.7,29.67,North,5,5.0,8.0,80,0.00,,,0.00,0,Wunderground v.1.15,2013-04-12 03:11:00,
2013-04-11 23:16:00,63.7,57.4,29.67,NE,35,6.0,12.0,80,0.00,,,0.00,0,Wunderground v.1.15,2013-04-12 03:16:00,
2013-04-11 23:22:00,63.4,57.5,29.66,NE,45,8.0,13.0,81,0.00,,,0.00,0,Wunderground v.1.15,2013-04-12 03:22:00,
2013-04-11 23:28:00,62.9,57.3,29.65,ENE,65,9.0,13.0,82,0.00,,,0.00,0,Wunderground v.1.15,2013-04-12 03:28:00,
2013-04-11 23:34:00,62.3,57.4,29.64,NE,38,11.0,15.0,84,0.00,,,0.00,0,Wunderground v.1.15,2013-04-12 03:34:00,
2013-04-11 23:39:00,62.1,57.2,29.65,North,5,10.0,15.0,84,0.00,,,0.00,0,Wunderground v.1.15,2013-04-12 03:39:00,
2013-04-11 23:45:00,62.0,57.1,29.65,NE,55,6.0,10.0,84,0.00,,,0.00,0,Wunderground v.1.15,2013-04-12 03:45:00,
2013-04-11 23:51:00,61.9,57.0,29.65,ENE,77,5.0,9.0,84,0.00,,,0.00,0,Wunderground v.1.15,2013-04-12 03:51:00,
2013-04-11 23:57:00,61.7,57.1,29.65,North,5,6.0,10.0,85,0.00,,,0.00,0,Wunderground v.1.15,2013-04-12 03:57:00,